createdAt,value
2022-08-18T00:02:02.153Z,8.00
2022-08-18T00:04:35.977Z,7.60
2022-08-18T00:07:05.498Z,8.57
2022-08-18T00:09:35.526Z,7.17
2022-08-18T00:12:05.483Z,8.00
2022-08-18T00:14:33.894Z,8.23
2022-08-18T00:17:03.175Z,7.67
2022-08-18T00:19:47.066Z,8.43
2022-08-18T00:22:19.001Z,8.30
2022-08-18T00:24:49.522Z,7.40
2022-08-18T00:27:23.439Z,8.17
2022-08-18T00:29:52.424Z,8.73
2022-08-18T00:32:24.498Z,8.53
2022-08-18T00:34:53.381Z,9.60
2022-08-18T00:37:21.659Z,9.80
2022-08-18T00:39:51.931Z,8.67
2022-08-18T00:42:28.970Z,8.63
2022-08-18T00:45:01.737Z,9.67
2022-08-18T00:47:33.181Z,9.57
2022-08-18T00:50:15.489Z,9.50
2022-08-18T00:52:47.084Z,9.50
2022-08-18T00:55:18.505Z,9.87
2022-08-18T00:57:52.064Z,9.10
2022-08-18T01:00:20.449Z,9.80
2022-08-18T01:02:54.237Z,9.13
2022-08-18T01:05:27.431Z,12.53
2022-08-18T01:07:56.264Z,9.03
2022-08-18T01:10:24.978Z,9.83
2022-08-18T01:12:55.141Z,8.23
2022-08-18T01:15:29.484Z,9.67
2022-08-18T01:18:18.770Z,9.23
2022-08-18T01:21:12.591Z,9.23
2022-08-18T01:23:41.913Z,8.93
2022-08-18T01:26:09.400Z,9.77
2022-08-18T01:28:41.009Z,11.80
2022-08-18T01:31:10.548Z,10.10
2022-08-18T01:33:42.116Z,10.63
2022-08-18T01:36:14.470Z,10.63
2022-08-18T01:38:44.622Z,11.53
2022-08-18T01:41:25.913Z,10.40
2022-08-18T01:43:56.132Z,10.93
2022-08-18T01:46:24.427Z,11.40
2022-08-18T01:48:53.638Z,10.63
2022-08-18T01:51:39.453Z,10.50
2022-08-18T01:54:12.370Z,10.67
2022-08-18T01:56:40.801Z,11.43
2022-08-18T01:59:15.097Z,10.57
2022-08-18T02:01:50.713Z,12.83
2022-08-18T02:04:40.807Z,9.60
2022-08-18T02:07:11.212Z,10.83
2022-08-18T02:09:42.283Z,11.30
2022-08-18T02:12:12.448Z,10.63
2022-08-18T02:14:40.614Z,11.17
2022-08-18T02:17:11.037Z,12.53
2022-08-18T02:19:42.096Z,10.97
2022-08-18T02:22:12.132Z,11.20
2022-08-18T02:24:41.722Z,10.57
2022-08-18T02:27:12.018Z,11.93
2022-08-18T02:29:40.322Z,11.53
2022-08-18T02:32:09.410Z,11.30
2022-08-18T02:34:37.288Z,11.50
2022-08-18T02:37:05.463Z,12.83
2022-08-18T02:39:35.458Z,11.17
2022-08-18T02:42:05.209Z,14.23
2022-08-18T02:44:33.634Z,12.00
2022-08-18T02:47:01.962Z,11.53
2022-08-18T02:49:29.762Z,12.57
2022-08-18T02:51:57.604Z,15.20
2022-08-18T02:54:26.564Z,15.90
2022-08-18T02:56:54.474Z,17.90
2022-08-18T02:59:27.500Z,19.33
2022-08-18T03:01:57.291Z,22.20
2022-08-18T03:04:30.213Z,24.00
2022-08-18T03:07:01.431Z,26.87
2022-08-18T03:09:30.463Z,26.30
2022-08-18T03:11:58.954Z,26.70
2022-08-18T03:14:29.330Z,25.53
2022-08-18T03:16:57.313Z,27.30
2022-08-18T03:19:25.851Z,28.00
2022-08-18T03:21:55.057Z,29.03
2022-08-18T03:24:27.157Z,27.70
2022-08-18T03:26:57.290Z,30.63
2022-08-18T03:29:31.185Z,27.17
2022-08-18T03:32:02.433Z,28.10
2022-08-18T03:34:32.194Z,27.20
2022-08-18T03:37:00.489Z,30.77
2022-08-18T03:39:29.316Z,30.70
2022-08-18T03:42:01.175Z,33.50
2022-08-18T03:44:31.266Z,31.43
2022-08-18T03:47:01.543Z,30.40
2022-08-18T03:49:29.879Z,29.53
2022-08-18T03:52:00.966Z,31.03
2022-08-18T03:54:33.394Z,29.27
2022-08-18T03:57:01.397Z,29.00
2022-08-18T03:59:31.780Z,29.40
2022-08-18T04:02:04.195Z,29.13
2022-08-18T04:04:32.387Z,30.30
2022-08-18T04:07:04.760Z,34.70
2022-08-18T04:09:34.656Z,32.97
2022-08-18T04:12:16.512Z,29.77
2022-08-18T04:14:47.719Z,30.43
2022-08-18T04:17:17.684Z,29.80
2022-08-18T04:19:45.521Z,27.87
2022-08-18T04:22:17.613Z,30.80
2022-08-18T04:24:46.820Z,29.77
2022-08-18T04:27:14.826Z,29.23
2022-08-18T04:29:42.647Z,30.00
2022-08-18T04:32:10.675Z,29.03
2022-08-18T04:34:40.016Z,29.87
2022-08-18T04:37:09.704Z,31.63
2022-08-18T04:39:38.522Z,30.93
2022-08-18T04:42:06.667Z,31.87
2022-08-18T04:44:34.958Z,31.03
2022-08-18T04:47:04.729Z,31.37
2022-08-18T04:49:33.919Z,30.73
2022-08-18T04:52:40.563Z,31.67
2022-08-18T04:55:09.808Z,32.47
2022-08-18T04:57:37.738Z,29.17
2022-08-18T05:00:08.320Z,29.93
2022-08-18T05:02:36.133Z,32.70
2022-08-18T05:05:04.585Z,30.67
2022-08-18T05:07:34.349Z,29.53
2022-08-18T05:10:02.359Z,29.80
2022-08-18T05:12:30.258Z,29.77
2022-08-18T05:14:58.160Z,29.10
2022-08-18T05:17:30.344Z,28.80
2022-08-18T05:20:00.036Z,27.90
2022-08-18T05:22:30.718Z,28.43
2022-08-18T05:25:01.066Z,28.40
2022-08-18T05:27:34.049Z,31.00
2022-08-18T05:30:02.439Z,27.27
2022-08-18T05:32:47.203Z,31.97
2022-08-18T05:35:22.198Z,30.23
2022-08-18T05:38:04.432Z,32.10
2022-08-18T05:40:35.841Z,27.47
2022-08-18T05:43:05.763Z,29.60
2022-08-18T05:45:34.686Z,25.77
2022-08-18T05:48:02.644Z,26.83
2022-08-18T05:50:35.318Z,28.73
2022-08-18T05:53:13.315Z,28.07
2022-08-18T05:56:07.310Z,28.37
2022-08-18T05:58:43.547Z,28.40
2022-08-18T06:01:18.265Z,28.57
2022-08-18T06:03:51.689Z,27.83
2022-08-18T06:06:22.473Z,29.83
2022-08-18T06:08:59.954Z,29.27
2022-08-18T06:11:29.256Z,31.10
2022-08-18T06:13:59.782Z,29.33
2022-08-18T06:16:42.226Z,30.10
2022-08-18T06:19:28.112Z,29.53
2022-08-18T06:22:04.567Z,30.00
2022-08-18T06:24:37.433Z,36.00
2022-08-18T06:27:20.917Z,31.50
2022-08-18T06:30:05.183Z,34.17
2022-08-18T06:32:47.913Z,34.87
2022-08-18T06:35:24.241Z,35.47
2022-08-18T06:38:21.492Z,31.53
2022-08-18T06:40:50.541Z,38.57
2022-08-18T06:43:20.069Z,36.23
2022-08-18T06:45:52.256Z,37.20
2022-08-18T06:48:28.764Z,33.90
2022-08-18T06:51:00.508Z,40.77
2022-08-18T06:53:53.683Z,39.57
2022-08-18T06:56:26.558Z,38.23
2022-08-18T06:58:56.309Z,41.77
2022-08-18T07:01:25.860Z,36.63
2022-08-18T07:03:58.248Z,35.90
2022-08-18T07:06:31.346Z,33.37
2022-08-18T07:09:21.610Z,35.92
2022-08-18T07:12:02.070Z,36.97
2022-08-18T07:14:31.821Z,39.67
2022-08-18T07:17:11.665Z,41.40
2022-08-18T07:19:39.409Z,44.80
2022-08-18T07:22:10.038Z,41.73
2022-08-18T07:24:42.565Z,41.00
2022-08-18T07:27:12.686Z,42.33
2022-08-18T07:30:00.941Z,44.40
2022-08-18T07:32:35.646Z,47.33
2022-08-18T07:35:06.959Z,49.03
2022-08-18T07:37:39.566Z,51.05
2022-08-18T07:40:17.280Z,52.33
2022-08-18T07:42:54.322Z,53.33
2022-08-18T07:45:37.103Z,50.40
2022-08-18T07:48:34.779Z,53.07
2022-08-18T07:51:09.944Z,52.27
2022-08-18T07:53:54.733Z,46.33
2022-08-18T07:56:35.822Z,48.23
2022-08-18T07:59:11.366Z,48.37
2022-08-18T08:01:44.958Z,44.30
2022-08-18T08:04:25.976Z,40.73
2022-08-18T08:07:22.854Z,38.50
2022-08-18T08:09:53.929Z,41.47
2022-08-18T08:12:31.177Z,36.43
2022-08-18T08:15:07.983Z,37.33
2022-08-18T08:17:43.875Z,37.90
2022-08-18T08:20:22.644Z,39.57
2022-08-18T08:23:17.370Z,37.35
2022-08-18T08:25:56.938Z,37.97
2022-08-18T08:28:39.421Z,34.97
2022-08-18T08:31:37.221Z,38.30
2022-08-18T08:34:13.623Z,42.45
2022-08-18T08:36:44.932Z,37.60
2022-08-18T08:39:19.123Z,34.55
2022-08-18T08:41:51.855Z,39.03
2022-08-18T08:44:24.848Z,37.10
2022-08-18T08:46:56.487Z,37.53
2022-08-18T08:49:35.894Z,43.47
2022-08-18T08:52:08.301Z,49.13
2022-08-18T08:54:45.055Z,43.40
2022-08-18T08:57:15.711Z,41.50
2022-08-18T08:59:46.645Z,42.70
2022-08-18T09:02:47.839Z,38.80
2022-08-18T09:05:20.880Z,41.90
2022-08-18T09:08:19.914Z,40.85
2022-08-18T09:11:15.401Z,39.15
2022-08-18T09:14:02.714Z,35.67
2022-08-18T09:16:45.184Z,35.30
2022-08-18T09:19:36.948Z,34.00
2022-08-18T09:22:13.827Z,36.20
2022-08-18T09:24:47.108Z,33.78
2022-08-18T09:27:26.447Z,33.90
2022-08-18T09:29:57.383Z,32.38
2022-08-18T09:32:45.751Z,32.92
2022-08-18T09:35:52.048Z,32.00
2022-08-18T09:38:45.104Z,27.55
2022-08-18T09:41:33.488Z,31.23
2022-08-18T09:44:21.316Z,28.38
2022-08-18T09:47:01.953Z,29.73
2022-08-18T09:49:51.406Z,29.02
2022-08-18T09:52:48.228Z,31.40
2022-08-18T09:55:57.901Z,31.00
2022-08-18T09:58:58.706Z,27.90
2022-08-18T10:01:37.984Z,29.05
2022-08-18T10:04:29.134Z,28.10
2022-08-18T10:07:15.896Z,27.75
2022-08-18T10:09:53.295Z,26.92
2022-08-18T10:12:37.441Z,27.13
2022-08-18T10:15:32.784Z,26.05
2022-08-18T10:18:21.244Z,27.90
2022-08-18T10:20:59.275Z,27.27
2022-08-18T10:24:02.851Z,26.40
2022-08-18T10:27:30.080Z,27.08
2022-08-18T10:30:00.245Z,26.63
2022-08-18T10:32:54.208Z,25.45
2022-08-18T10:36:07.125Z,24.42
2022-08-18T10:38:46.210Z,21.35
2022-08-18T10:41:25.208Z,21.75
2022-08-18T10:43:55.706Z,22.70
2022-08-18T10:46:38.135Z,27.85
2022-08-18T10:49:26.002Z,21.83
2022-08-18T10:55:51.167Z,22.58
2022-08-18T10:58:48.055Z,20.48
2022-08-18T11:01:31.081Z,20.92
2022-08-18T11:04:13.821Z,21.50
2022-08-18T11:06:54.505Z,19.90
2022-08-18T11:09:28.235Z,20.50
2022-08-18T11:12:09.401Z,23.80
2022-08-18T11:14:57.356Z,19.00
2022-08-18T11:17:36.928Z,17.63
2022-08-18T11:20:11.894Z,17.45
2022-08-18T11:22:39.872Z,17.60
2022-08-18T11:25:23.201Z,17.20
2022-08-18T11:27:51.326Z,16.83
2022-08-18T11:30:21.194Z,14.43
2022-08-18T11:33:02.860Z,14.15
2022-08-18T11:35:33.442Z,16.50
2022-08-18T11:38:03.778Z,15.38
2022-08-18T11:41:10.861Z,12.57
2022-08-18T11:43:29.814Z,13.77
2022-08-18T11:46:16.938Z,11.98
2022-08-18T11:48:53.832Z,11.45
2022-08-18T11:51:25.345Z,12.30
2022-08-18T11:53:59.412Z,12.80
2022-08-18T11:56:31.478Z,10.73
2022-08-18T11:59:02.032Z,10.20
2022-08-18T12:01:41.908Z,12.23
2022-08-18T12:04:28.962Z,9.43
2022-08-18T12:07:02.238Z,11.13
2022-08-18T12:12:35.028Z,9.25
2022-08-18T12:18:10.346Z,8.40
2022-08-18T12:20:51.143Z,8.77
2022-08-18T12:23:19.155Z,9.55
2022-08-18T12:25:51.700Z,10.45
2022-08-18T12:28:22.311Z,9.68
2022-08-18T12:30:56.114Z,10.05
2022-08-18T12:33:34.190Z,9.43
2022-08-18T12:36:15.856Z,8.57
2022-08-18T12:38:52.281Z,10.57
2022-08-18T12:41:25.013Z,9.07
2022-08-18T12:43:59.131Z,10.30
2022-08-18T12:46:28.173Z,10.10
2022-08-18T12:48:56.462Z,8.63
2022-08-18T12:51:30.340Z,8.60
2022-08-18T12:53:59.993Z,9.07
2022-08-18T12:56:31.080Z,7.88
2022-08-18T12:59:00.911Z,9.07
2022-08-18T13:01:33.454Z,9.15
2022-08-18T13:04:12.818Z,9.15
2022-08-18T13:06:59.549Z,8.40
2022-08-18T13:09:34.614Z,8.40
2022-08-18T13:12:16.682Z,9.57
2022-08-18T13:14:45.245Z,9.65
2022-08-18T13:17:29.696Z,8.57
2022-08-18T13:20:01.260Z,9.45
2022-08-18T13:22:32.609Z,8.98
2022-08-18T13:25:00.890Z,8.45
2022-08-18T13:27:33.569Z,8.70
2022-08-18T13:30:29.744Z,8.77
2022-08-18T13:32:58.996Z,9.23
2022-08-18T13:35:30.095Z,7.80
2022-08-18T13:38:14.631Z,8.52
2022-08-18T13:40:48.890Z,7.93
2022-08-18T13:43:18.691Z,7.30
2022-08-18T13:45:48.034Z,8.15
2022-08-18T13:48:21.467Z,8.13
2022-08-18T13:50:52.316Z,8.15
2022-08-18T13:53:22.395Z,8.07
2022-08-18T13:55:50.423Z,7.90
2022-08-18T13:58:20.978Z,9.25
2022-08-18T14:00:54.011Z,7.30
2022-08-18T14:03:42.709Z,8.30
2022-08-18T14:06:13.320Z,7.35
2022-08-18T14:08:43.030Z,7.47
2022-08-18T14:11:10.812Z,8.32
2022-08-18T14:13:43.892Z,7.65
2022-08-18T14:16:16.198Z,8.80
2022-08-18T14:19:09.581Z,7.95
2022-08-18T14:21:59.572Z,8.10
2022-08-18T14:24:48.601Z,7.50
2022-08-18T14:27:17.463Z,8.15
2022-08-18T14:29:48.168Z,8.65
2022-08-18T14:32:21.902Z,7.47
2022-08-18T14:34:59.813Z,8.48
2022-08-18T14:37:29.318Z,7.97
2022-08-18T14:39:58.721Z,8.52
2022-08-18T14:42:32.774Z,9.80
2022-08-18T14:45:26.473Z,8.38
2022-08-18T14:47:56.676Z,7.68
2022-08-18T14:50:25.818Z,9.77
2022-08-18T14:52:53.932Z,9.70
2022-08-18T14:55:23.640Z,7.85
2022-08-18T14:57:52.330Z,8.05
2022-08-18T15:00:22.599Z,9.10
2022-08-18T15:02:51.457Z,8.82
2022-08-18T15:05:24.346Z,9.25
2022-08-18T15:07:53.245Z,8.98
2022-08-18T15:10:23.305Z,8.60
2022-08-18T15:12:58.044Z,9.40
2022-08-18T15:15:25.855Z,7.93
2022-08-18T15:17:53.760Z,8.57
2022-08-18T15:20:24.067Z,8.55
2022-08-18T15:23:17.171Z,7.75
2022-08-18T15:25:46.160Z,8.82
2022-08-18T15:28:20.847Z,8.45
2022-08-18T15:30:51.126Z,8.43
2022-08-18T15:33:24.730Z,8.50
2022-08-18T15:35:53.538Z,8.23
2022-08-18T15:38:24.461Z,8.00
2022-08-18T15:40:58.025Z,8.05
2022-08-18T15:43:31.408Z,8.43
2022-08-18T15:46:00.216Z,8.18
2022-08-18T15:48:29.450Z,8.18
2022-08-18T15:50:57.302Z,8.73
2022-08-18T15:53:44.604Z,8.55
2022-08-18T15:56:15.236Z,8.30
2022-08-18T15:58:46.745Z,7.95
2022-08-18T16:01:30.410Z,8.32
2022-08-18T16:04:01.175Z,8.85
2022-08-18T16:06:32.353Z,7.97
2022-08-18T16:09:01.769Z,7.85
2022-08-18T16:11:30.064Z,8.13
2022-08-18T16:13:59.946Z,7.78
2022-08-18T16:16:29.347Z,8.52
2022-08-18T16:19:05.369Z,8.55
2022-08-18T16:21:33.347Z,8.10
2022-08-18T16:24:01.228Z,8.48
2022-08-18T16:26:29.033Z,9.13
2022-08-18T16:29:00.179Z,8.55
2022-08-18T16:31:30.910Z,8.07
2022-08-18T16:33:59.212Z,7.95
2022-08-18T16:36:27.070Z,7.85
2022-08-18T16:38:58.043Z,10.00
2022-08-18T16:41:26.479Z,8.32
2022-08-18T16:43:54.521Z,8.40
2022-08-18T16:46:26.425Z,8.05
2022-08-18T16:48:57.114Z,7.78
2022-08-18T16:51:27.270Z,7.32
2022-08-18T16:53:56.106Z,8.20
2022-08-18T16:56:26.418Z,7.63
2022-08-18T16:59:11.997Z,7.40
2022-08-18T17:01:58.122Z,8.30
2022-08-18T17:04:29.943Z,11.07
2022-08-18T17:06:58.297Z,11.30
2022-08-18T17:09:26.564Z,9.43
2022-08-18T17:11:54.709Z,9.45
2022-08-18T17:14:23.617Z,10.15
2022-08-18T17:16:54.734Z,9.55
2022-08-18T17:19:23.642Z,10.48
2022-08-18T17:21:53.308Z,11.10
2022-08-18T17:24:31.128Z,10.10
2022-08-18T17:27:25.530Z,9.85
2022-08-18T17:30:01.610Z,10.25
2022-08-18T17:35:15.192Z,11.43
2022-08-18T17:37:53.123Z,10.82
2022-08-18T17:40:28.833Z,10.70
2022-08-18T17:42:57.449Z,9.68
2022-08-18T17:45:25.377Z,8.30
2022-08-18T17:48:00.376Z,9.63
2022-08-18T17:50:52.083Z,10.00
2022-08-18T17:53:22.567Z,10.20
2022-08-18T17:55:59.642Z,9.82
2022-08-18T17:58:35.402Z,9.98
2022-08-18T18:01:04.178Z,9.57
2022-08-18T18:03:34.234Z,10.10
2022-08-18T18:06:09.886Z,9.80
2022-08-18T18:08:54.351Z,10.63
2022-08-18T18:11:27.830Z,10.23
2022-08-18T18:13:55.870Z,11.13
2022-08-18T18:16:34.820Z,10.80
2022-08-18T18:19:06.200Z,10.80
2022-08-18T18:21:53.405Z,12.23
2022-08-18T18:24:31.615Z,9.85
2022-08-18T18:26:59.446Z,10.40
2022-08-18T18:29:33.576Z,12.23
2022-08-18T18:32:06.215Z,10.27
2022-08-18T18:34:39.547Z,10.15
2022-08-18T18:37:25.445Z,10.80
2022-08-18T18:39:59.597Z,11.18
2022-08-18T18:42:29.711Z,10.25
2022-08-18T18:45:00.010Z,11.38
2022-08-18T18:47:49.783Z,11.23
2022-08-18T18:50:26.574Z,9.85
2022-08-18T18:53:10.901Z,12.43
2022-08-18T18:55:48.250Z,12.10
2022-08-18T18:58:27.338Z,10.20
2022-08-18T19:00:59.468Z,11.02
2022-08-18T19:03:34.513Z,10.38
2022-08-18T19:06:14.259Z,11.05
2022-08-18T19:08:50.588Z,11.55
2022-08-18T19:11:29.498Z,11.88
2022-08-18T19:14:03.792Z,13.20
2022-08-18T19:16:40.965Z,11.10
2022-08-18T19:19:35.848Z,12.10
2022-08-18T19:22:14.106Z,12.88
2022-08-18T19:24:51.705Z,11.05
2022-08-18T19:27:30.105Z,11.93
2022-08-18T19:30:02.448Z,12.05
2022-08-18T19:32:38.787Z,10.80
2022-08-18T19:35:12.003Z,13.00
2022-08-18T19:37:56.055Z,10.98
2022-08-18T19:40:30.471Z,12.10
2022-08-18T19:43:05.203Z,10.50
2022-08-18T19:45:37.933Z,10.73
2022-08-18T19:48:16.326Z,10.73
2022-08-18T19:50:51.162Z,10.45
2022-08-18T19:53:52.792Z,10.35
2022-08-18T19:56:37.514Z,10.60
2022-08-18T19:59:34.973Z,13.65
2022-08-18T20:02:18.509Z,11.43
2022-08-18T20:05:09.129Z,10.35
2022-08-18T20:07:55.638Z,14.57
2022-08-18T20:10:57.754Z,11.07
2022-08-18T20:13:33.783Z,11.82
2022-08-18T20:16:22.001Z,10.73
2022-08-18T20:18:52.314Z,8.50
2022-08-18T20:21:41.633Z,8.60
2022-08-18T20:24:35.296Z,10.10
2022-08-18T20:27:22.356Z,11.35
2022-08-18T20:30:01.339Z,8.33
2022-08-18T20:32:34.470Z,9.30
2022-08-18T20:35:18.163Z,9.45
2022-08-18T20:37:46.409Z,8.00
2022-08-18T20:40:47.437Z,9.30
2022-08-18T20:43:33.133Z,8.75
2022-08-18T20:46:13.787Z,10.47
2022-08-18T20:49:06.974Z,13.73
2022-08-18T20:51:42.494Z,11.05
2022-08-18T20:54:31.501Z,8.63
2022-08-18T20:57:04.269Z,11.33
2022-08-18T20:59:34.585Z,8.03
2022-08-18T21:02:07.379Z,8.67
2022-08-18T21:04:48.349Z,8.67
2022-08-18T21:07:36.703Z,9.73
2022-08-18T21:10:13.626Z,8.80
2022-08-18T21:12:52.379Z,10.93
2022-08-18T21:15:21.664Z,9.07
2022-08-18T21:17:58.644Z,9.20
2022-08-18T21:20:28.514Z,8.73
2022-08-18T21:23:04.502Z,9.40
2022-08-18T21:25:33.596Z,10.33
2022-08-18T21:28:03.942Z,9.83
2022-08-18T21:30:32.924Z,8.37
2022-08-18T21:33:02.044Z,9.83
2022-08-18T21:35:35.466Z,8.10
2022-08-18T21:38:05.941Z,8.48
2022-08-18T21:40:41.149Z,10.93
2022-08-18T21:43:11.631Z,8.87
2022-08-18T21:45:47.659Z,7.87
2022-08-18T21:48:16.299Z,8.37
2022-08-18T21:50:53.318Z,9.23
2022-08-18T21:53:28.483Z,8.60
2022-08-18T21:55:57.434Z,9.10
2022-08-18T21:58:32.709Z,9.83
2022-08-18T22:01:24.602Z,7.23
2022-08-18T22:03:59.626Z,9.20
2022-08-18T22:06:37.456Z,8.63
2022-08-18T22:09:30.270Z,9.07
2022-08-18T22:12:30.739Z,8.17
2022-08-18T22:15:10.440Z,10.87
2022-08-18T22:17:44.974Z,7.60
2022-08-18T22:20:38.962Z,10.33
2022-08-18T22:23:39.581Z,8.50
2022-08-18T22:26:13.739Z,7.70
2022-08-18T22:28:54.965Z,8.13
2022-08-18T22:31:24.017Z,11.63
2022-08-18T22:33:53.402Z,9.93
2022-08-18T22:36:24.990Z,11.07
2022-08-18T22:38:54.516Z,11.33
2022-08-18T22:41:23.343Z,9.87
2022-08-18T22:43:54.736Z,8.27
2022-08-18T22:46:25.094Z,8.97
2022-08-18T22:48:53.705Z,10.03
2022-08-18T22:51:23.840Z,9.37
2022-08-18T22:53:52.271Z,10.57
2022-08-18T22:56:26.482Z,10.30
2022-08-18T22:59:12.140Z,11.23
2022-08-18T23:01:46.078Z,7.90
2022-08-18T23:04:16.255Z,8.50
2022-08-18T23:06:51.052Z,8.90
2022-08-18T23:09:23.207Z,8.70
2022-08-18T23:11:53.461Z,8.07
2022-08-18T23:14:22.210Z,7.00
2022-08-18T23:16:50.301Z,9.17
2022-08-18T23:19:20.217Z,9.53
2022-08-18T23:21:49.411Z,8.67
2022-08-18T23:24:18.455Z,7.33
2022-08-18T23:26:46.342Z,7.77
2022-08-18T23:29:16.026Z,8.10
2022-08-18T23:31:45.584Z,6.67
2022-08-18T23:34:15.398Z,7.37
2022-08-18T23:36:45.730Z,8.33
2022-08-18T23:39:14.644Z,6.67
2022-08-18T23:41:42.728Z,7.50
2022-08-18T23:44:10.682Z,9.47
2022-08-18T23:46:40.052Z,9.20
2022-08-18T23:49:10.920Z,9.43
2022-08-18T23:51:44.183Z,10.23
2022-08-18T23:54:17.590Z,7.93
2022-08-18T23:56:46.200Z,8.27
2022-08-18T23:59:15.041Z,8.03
